createdAt,value
2022-08-11T00:00:46.342Z,20.16
2022-08-11T00:01:58.219Z,20.08
2022-08-11T00:03:05.554Z,20.11
2022-08-11T00:04:07.686Z,20.07
2022-08-11T00:05:15.482Z,19.99
2022-08-11T00:06:28.738Z,20.03
2022-08-11T00:07:30.619Z,19.94
2022-08-11T00:08:33.417Z,19.84
2022-08-11T00:09:39.908Z,19.82
2022-08-11T00:10:41.909Z,19.81
2022-08-11T00:11:58.688Z,19.78
2022-08-11T00:13:05.254Z,19.64
2022-08-11T00:14:15.778Z,19.66
2022-08-11T00:15:18.037Z,19.50
2022-08-11T00:16:22.801Z,19.48
2022-08-11T00:17:29.251Z,19.49
2022-08-11T00:18:42.579Z,19.43
2022-08-11T00:20:12.718Z,19.47
2022-08-11T00:21:09.517Z,19.57
2022-08-11T00:22:19.609Z,19.58
2022-08-11T00:23:21.156Z,19.58
2022-08-11T00:24:24.025Z,19.63
2022-08-11T00:25:25.970Z,19.61
2022-08-11T00:26:29.182Z,19.59
2022-08-11T00:27:38.407Z,19.58
2022-08-11T00:28:41.822Z,19.55
2022-08-11T00:29:53.639Z,19.51
2022-08-11T00:30:57.512Z,19.48
2022-08-11T00:32:03.890Z,19.49
2022-08-11T00:33:07.142Z,19.50
2022-08-11T00:34:11.863Z,19.52
2022-08-11T00:35:53.963Z,19.50
2022-08-11T00:36:47.212Z,19.59
2022-08-11T00:37:53.362Z,19.75
2022-08-11T00:39:02.446Z,19.71
2022-08-11T00:40:10.183Z,19.66
2022-08-11T00:41:16.813Z,19.61
2022-08-11T00:42:53.892Z,19.52
2022-08-11T00:44:25.340Z,19.47
2022-08-11T00:45:41.443Z,19.61
2022-08-11T00:46:58.618Z,19.60
2022-08-11T00:48:05.397Z,19.56
2022-08-11T00:49:28.349Z,19.57
2022-08-11T00:50:42.490Z,19.61
2022-08-11T00:52:06.422Z,19.71
2022-08-11T00:53:35.245Z,19.72
2022-08-11T00:54:39.724Z,19.65
2022-08-11T00:56:09.708Z,19.63
2022-08-11T00:57:39.260Z,19.66
2022-08-11T00:58:59.463Z,19.58
2022-08-11T01:00:04.511Z,19.51
2022-08-11T01:01:18.649Z,19.58
2022-08-11T01:02:23.071Z,19.54
2022-08-11T01:03:41.435Z,19.51
2022-08-11T01:05:07.174Z,19.54
2022-08-11T01:06:50.361Z,19.43
2022-08-11T01:08:05.229Z,19.44
2022-08-11T01:09:49.699Z,19.44
2022-08-11T01:11:21.477Z,19.31
2022-08-11T01:12:29.261Z,19.30
2022-08-11T01:14:01.315Z,19.28
2022-08-11T01:15:40.167Z,19.28
2022-08-11T01:17:00.396Z,19.23
2022-08-11T01:18:33.397Z,19.16
2022-08-11T01:20:45.728Z,19.15
2022-08-11T01:22:06.777Z,19.17
2022-08-11T01:23:12.534Z,19.19
2022-08-11T01:24:36.414Z,19.10
2022-08-11T01:25:57.601Z,19.09
2022-08-11T01:27:28.146Z,19.14
2022-08-11T01:28:58.045Z,19.15
2022-08-11T01:30:27.210Z,19.18
2022-08-11T01:32:04.548Z,19.08
2022-08-11T01:33:44.356Z,19.00
2022-08-11T01:35:17.087Z,19.07
2022-08-11T01:36:46.503Z,19.14
2022-08-11T01:38:28.199Z,19.13
2022-08-11T01:39:35.164Z,19.18
2022-08-11T01:40:51.567Z,19.22
2022-08-11T01:42:39.058Z,19.11
2022-08-11T01:44:33.369Z,19.00
2022-08-11T01:45:59.524Z,18.96
2022-08-11T01:47:52.467Z,19.05
2022-08-11T01:50:05.735Z,19.19
2022-08-11T01:51:30.257Z,19.09
2022-08-11T01:52:45.638Z,18.94
2022-08-11T01:54:20.832Z,18.93
2022-08-11T01:55:31.923Z,18.89
2022-08-11T01:56:49.554Z,18.90
2022-08-11T01:58:08.451Z,18.93
2022-08-11T01:59:33.214Z,18.90
2022-08-11T02:00:52.321Z,18.87
2022-08-11T02:02:47.995Z,18.85
2022-08-11T02:03:59.930Z,18.88
2022-08-11T02:05:29.218Z,18.86
2022-08-11T02:06:55.060Z,18.84
2022-08-11T02:08:14.919Z,18.80
2022-08-11T02:09:28.954Z,18.62
2022-08-11T02:11:14.148Z,18.67
2022-08-11T02:12:52.797Z,18.72
2022-08-11T02:14:22.380Z,18.70
2022-08-11T02:15:29.241Z,18.72
2022-08-11T02:16:48.001Z,18.75
2022-08-11T02:18:16.904Z,18.75
2022-08-11T02:19:51.361Z,18.74
2022-08-11T02:21:20.868Z,18.75
2022-08-11T02:23:08.657Z,18.72
2022-08-11T02:24:20.515Z,18.61
2022-08-11T02:25:44.311Z,18.63
2022-08-11T02:26:57.680Z,18.68
2022-08-11T02:28:20.089Z,18.69
2022-08-11T02:29:33.157Z,18.70
2022-08-11T02:31:06.511Z,18.74
2022-08-11T02:32:51.040Z,18.71
2022-08-11T02:34:06.110Z,18.68
2022-08-11T02:35:10.324Z,18.63
2022-08-11T02:36:22.409Z,18.63
2022-08-11T02:37:33.047Z,18.58
2022-08-11T02:38:37.491Z,18.59
2022-08-11T02:39:50.189Z,18.57
2022-08-11T02:41:38.107Z,18.54
2022-08-11T02:43:03.242Z,18.48
2022-08-11T02:44:35.402Z,18.51
2022-08-11T02:45:50.023Z,18.46
2022-08-11T02:47:02.972Z,18.46
2022-08-11T02:48:38.931Z,18.45
2022-08-11T02:50:06.140Z,18.41
2022-08-11T02:51:27.308Z,18.43
2022-08-11T02:52:40.981Z,18.41
2022-08-11T02:54:06.962Z,18.39
2022-08-11T02:55:44.696Z,18.40
2022-08-11T02:56:57.279Z,18.30
2022-08-11T02:58:28.464Z,18.29
2022-08-11T02:59:51.774Z,18.23
2022-08-11T03:01:23.458Z,18.21
2022-08-11T03:03:04.698Z,18.26
2022-08-11T03:04:19.417Z,18.30
2022-08-11T03:05:48.848Z,18.30
2022-08-11T03:07:29.103Z,18.22
2022-08-11T03:08:52.423Z,18.07
2022-08-11T03:10:03.133Z,18.06
2022-08-11T03:11:37.011Z,18.07
2022-08-11T03:13:32.661Z,17.96
2022-08-11T03:15:05.587Z,17.91
2022-08-11T03:16:31.661Z,17.92
2022-08-11T03:18:03.100Z,17.91
2022-08-11T03:19:26.094Z,17.77
2022-08-11T03:20:43.643Z,17.80
2022-08-11T03:22:02.845Z,17.73
2022-08-11T03:23:19.425Z,17.67
2022-08-11T03:24:37.133Z,17.74
2022-08-11T03:25:50.972Z,17.72
2022-08-11T03:27:00.379Z,17.74
2022-08-11T03:28:14.419Z,17.74
2022-08-11T03:29:37.825Z,17.64
2022-08-11T03:30:52.703Z,17.67
2022-08-11T03:32:06.137Z,17.66
2022-08-11T03:33:32.325Z,17.67
2022-08-11T03:34:38.265Z,17.58
2022-08-11T03:36:03.875Z,17.58
2022-08-11T03:37:43.920Z,17.60
2022-08-11T03:39:06.626Z,17.65
2022-08-11T03:40:38.768Z,17.56
2022-08-11T03:42:02.425Z,17.53
2022-08-11T03:43:28.674Z,17.53
2022-08-11T03:44:55.317Z,17.54
2022-08-11T03:46:12.399Z,17.49
2022-08-11T03:47:37.585Z,17.47
2022-08-11T03:49:23.255Z,17.48
2022-08-11T03:50:43.014Z,17.47
2022-08-11T03:51:52.183Z,17.47
2022-08-11T03:53:28.289Z,17.42
2022-08-11T03:54:57.027Z,17.34
2022-08-11T03:56:22.130Z,17.35
2022-08-11T03:57:49.570Z,17.30
2022-08-11T03:59:17.179Z,17.31
2022-08-11T04:00:34.048Z,17.29
2022-08-11T04:02:23.648Z,17.30
2022-08-11T04:03:48.157Z,17.31
2022-08-11T04:05:14.466Z,17.31
2022-08-11T04:06:37.994Z,17.36
2022-08-11T04:08:15.447Z,17.25
2022-08-11T04:09:35.518Z,17.25
2022-08-11T04:10:59.635Z,17.15
2022-08-11T04:12:36.781Z,17.19
2022-08-11T04:14:29.609Z,17.12
2022-08-11T04:16:11.541Z,17.17
2022-08-11T04:17:23.417Z,17.21
2022-08-11T04:18:26.280Z,17.28
2022-08-11T04:20:06.400Z,17.31
2022-08-11T04:21:16.846Z,17.26
2022-08-11T04:22:21.227Z,17.24
2022-08-11T04:24:34.488Z,17.22
2022-08-11T04:25:21.088Z,17.22
2022-08-11T04:26:49.229Z,17.23
2022-08-11T04:28:29.173Z,17.27
2022-08-11T04:30:03.685Z,17.37
2022-08-11T04:31:51.221Z,17.33
2022-08-11T04:33:35.027Z,17.32
2022-08-11T04:34:51.423Z,17.32
2022-08-11T04:36:09.633Z,17.36
2022-08-11T04:37:34.311Z,17.38
2022-08-11T04:38:46.371Z,17.36
2022-08-11T04:40:11.115Z,17.31
2022-08-11T04:42:09.294Z,17.32
2022-08-11T04:44:06.422Z,17.39
2022-08-11T04:45:33.976Z,17.43
2022-08-11T04:46:58.156Z,17.42
2022-08-11T04:48:33.115Z,17.45
2022-08-11T04:50:05.319Z,17.48
2022-08-11T04:52:02.606Z,17.50
2022-08-11T04:53:47.900Z,17.57
2022-08-11T04:55:37.845Z,17.59
2022-08-11T04:57:03.127Z,17.60
2022-08-11T04:58:40.690Z,17.67
2022-08-11T05:00:19.501Z,17.66
2022-08-11T05:02:02.770Z,17.60
2022-08-11T05:03:22.357Z,17.60
2022-08-11T05:05:04.470Z,17.67
2022-08-11T05:06:45.011Z,17.77
2022-08-11T05:08:07.991Z,17.77
2022-08-11T05:09:26.102Z,17.78
2022-08-11T05:11:04.520Z,17.78
2022-08-11T05:12:13.448Z,17.84
2022-08-11T05:14:01.311Z,17.84
2022-08-11T05:15:22.855Z,17.87
2022-08-11T05:16:49.343Z,17.91
2022-08-11T05:18:33.300Z,17.96
2022-08-11T05:19:55.077Z,18.04
2022-08-11T05:21:21.551Z,18.10
2022-08-11T05:22:48.728Z,18.24
2022-08-11T05:24:16.359Z,18.33
2022-08-11T05:26:43.289Z,18.34
2022-08-11T05:27:24.437Z,18.50
2022-08-11T05:29:20.262Z,18.68
2022-08-11T05:30:48.658Z,18.73
2022-08-11T05:32:16.893Z,18.73
2022-08-11T05:33:52.609Z,18.75
2022-08-11T05:34:56.621Z,18.77
2022-08-11T05:36:12.346Z,18.86
2022-08-11T05:37:29.568Z,18.83
2022-08-11T05:38:53.575Z,18.89
2022-08-11T05:40:26.760Z,18.89
2022-08-11T05:41:50.242Z,18.99
2022-08-11T05:43:17.043Z,19.07
2022-08-11T05:44:39.388Z,19.11
2022-08-11T05:46:04.802Z,19.16
2022-08-11T05:47:27.635Z,19.25
2022-08-11T05:48:55.283Z,19.39
2022-08-11T05:50:15.799Z,19.43
2022-08-11T05:51:37.012Z,19.40
2022-08-11T05:52:58.148Z,19.48
2022-08-11T05:54:29.139Z,19.55
2022-08-11T05:56:01.825Z,19.57
2022-08-11T05:57:05.072Z,19.59
2022-08-11T05:58:09.169Z,19.76
2022-08-11T05:59:21.250Z,19.83
2022-08-11T06:00:24.384Z,19.85
2022-08-11T06:01:31.591Z,19.87
2022-08-11T06:02:34.132Z,19.98
2022-08-11T06:03:57.558Z,19.94
2022-08-11T06:05:01.968Z,19.91
2022-08-11T06:06:08.818Z,19.89
2022-08-11T06:07:17.626Z,19.88
2022-08-11T06:08:28.434Z,19.92
2022-08-11T06:09:35.481Z,20.04
2022-08-11T06:10:39.474Z,20.07
2022-08-11T06:11:44.997Z,20.11
2022-08-11T06:12:53.501Z,20.31
2022-08-11T06:13:57.409Z,20.33
2022-08-11T06:15:05.471Z,20.35
2022-08-11T06:16:07.379Z,20.38
2022-08-11T06:17:09.610Z,20.42
2022-08-11T06:18:13.547Z,20.43
2022-08-11T06:19:16.102Z,20.41
2022-08-11T06:20:19.343Z,20.42
2022-08-11T06:21:22.077Z,20.45
2022-08-11T06:22:24.010Z,20.46
2022-08-11T06:23:36.209Z,20.51
2022-08-11T06:24:41.774Z,20.52
2022-08-11T06:25:44.101Z,20.58
2022-08-11T06:28:20.558Z,20.65
2022-08-11T06:29:37.535Z,20.73
2022-08-11T06:30:47.104Z,20.75
2022-08-11T06:32:01.281Z,20.85
2022-08-11T06:33:04.684Z,20.91
2022-08-11T06:34:27.045Z,20.94
2022-08-11T06:35:51.674Z,21.05
2022-08-11T06:37:18.535Z,21.17
2022-08-11T06:38:41.529Z,21.25
2022-08-11T06:39:46.019Z,21.34
2022-08-11T06:41:17.498Z,21.37
2022-08-11T06:42:37.379Z,21.39
2022-08-11T06:43:55.918Z,21.44
2022-08-11T06:45:20.070Z,21.42
2022-08-11T06:46:31.122Z,21.50
2022-08-11T06:47:33.442Z,21.53
2022-08-11T06:48:36.229Z,21.63
2022-08-11T06:50:02.313Z,21.70
2022-08-11T06:51:12.117Z,21.72
2022-08-11T06:52:35.128Z,21.81
2022-08-11T06:54:03.847Z,21.75
2022-08-11T06:55:57.952Z,21.83
2022-08-11T06:57:26.489Z,21.94
2022-08-11T06:58:40.968Z,22.14
2022-08-11T07:00:03.419Z,22.28
2022-08-11T07:01:13.291Z,22.40
2022-08-11T07:02:30.944Z,22.39
2022-08-11T07:03:39.039Z,22.46
2022-08-11T07:05:01.376Z,22.52
2022-08-11T07:06:08.718Z,22.67
2022-08-11T07:08:33.262Z,22.80
2022-08-11T07:10:45.805Z,22.87
2022-08-11T07:12:19.501Z,23.07
2022-08-11T07:13:45.357Z,23.04
2022-08-11T07:15:10.565Z,23.06
2022-08-11T07:16:17.331Z,23.19
2022-08-11T07:17:25.157Z,23.30
2022-08-11T07:18:50.926Z,23.47
2022-08-11T07:20:17.334Z,23.44
2022-08-11T07:22:02.730Z,23.65
2022-08-11T07:23:27.909Z,23.68
2022-08-11T07:24:59.298Z,23.70
2022-08-11T07:26:23.482Z,23.60
2022-08-11T07:27:48.741Z,23.63
2022-08-11T07:28:58.291Z,23.74
2022-08-11T07:30:03.901Z,23.81
2022-08-11T07:31:14.060Z,23.79
2022-08-11T07:32:38.669Z,23.87
2022-08-11T07:34:05.869Z,23.80
2022-08-11T07:35:17.653Z,23.74
2022-08-11T07:36:22.961Z,24.00
2022-08-11T07:37:33.393Z,23.96
2022-08-11T07:38:47.343Z,23.80
2022-08-11T07:39:50.406Z,23.77
2022-08-11T07:40:52.381Z,23.79
2022-08-11T07:41:57.195Z,23.86
2022-08-11T07:43:01.080Z,23.93
2022-08-11T07:44:11.821Z,23.99
2022-08-11T07:45:32.430Z,24.05
2022-08-11T07:46:53.005Z,24.15
2022-08-11T07:48:14.531Z,24.40
2022-08-11T07:49:35.185Z,24.62
2022-08-11T07:51:00.209Z,24.60
2022-08-11T07:52:21.667Z,24.78
2022-08-11T07:53:23.535Z,24.92
2022-08-11T07:54:28.158Z,24.82
2022-08-11T07:55:50.174Z,24.82
2022-08-11T07:58:19.820Z,24.64
2022-08-11T08:00:03.793Z,24.66
2022-08-11T08:01:22.905Z,24.71
2022-08-11T08:02:43.459Z,24.88
2022-08-11T08:04:04.833Z,24.95
2022-08-11T08:05:25.473Z,25.12
2022-08-11T08:06:46.826Z,25.12
2022-08-11T08:08:07.305Z,25.21
2022-08-11T08:09:28.858Z,25.15
2022-08-11T08:10:50.329Z,25.56
2022-08-11T08:12:10.710Z,25.49
2022-08-11T08:13:31.805Z,25.14
2022-08-11T08:14:52.745Z,25.39
2022-08-11T08:16:14.226Z,25.43
2022-08-11T08:17:35.041Z,25.54
2022-08-11T08:18:37.978Z,25.72
2022-08-11T08:19:44.619Z,25.64
2022-08-11T08:20:50.093Z,25.73
2022-08-11T08:21:52.528Z,25.66
2022-08-11T08:22:57.060Z,25.36
2022-08-11T08:23:58.808Z,25.34
2022-08-11T08:25:00.799Z,25.29
2022-08-11T08:26:04.782Z,25.51
2022-08-11T08:27:06.954Z,25.59
2022-08-11T08:28:16.418Z,25.39
2022-08-11T08:29:38.953Z,25.42
2022-08-11T08:30:51.271Z,25.66
2022-08-11T08:31:56.056Z,25.88
2022-08-11T08:33:00.962Z,25.86
2022-08-11T08:34:03.891Z,25.91
2022-08-11T08:35:06.936Z,25.98
2022-08-11T08:36:12.904Z,26.04
2022-08-11T08:37:45.568Z,25.84
2022-08-11T08:38:51.598Z,26.03
2022-08-11T08:39:54.683Z,25.72
2022-08-11T08:40:57.459Z,25.90
2022-08-11T08:41:59.941Z,25.99
2022-08-11T08:43:12.305Z,25.90
2022-08-11T08:44:37.059Z,25.94
2022-08-11T08:45:39.431Z,25.98
2022-08-11T08:46:48.015Z,26.11
2022-08-11T08:48:01.806Z,26.11
2022-08-11T08:49:05.123Z,26.14
2022-08-11T08:50:16.318Z,26.07
2022-08-11T08:52:01.425Z,26.15
2022-08-11T08:53:05.353Z,26.10
2022-08-11T08:54:17.905Z,26.07
2022-08-11T08:55:21.182Z,26.01
2022-08-11T08:56:31.457Z,26.13
2022-08-11T08:57:39.508Z,26.20
2022-08-11T08:58:42.362Z,26.08
2022-08-11T08:59:49.570Z,26.01
2022-08-11T09:00:55.063Z,26.19
2022-08-11T09:02:06.428Z,26.10
2022-08-11T09:03:36.460Z,25.94
2022-08-11T09:04:31.851Z,26.08
2022-08-11T09:05:33.962Z,26.11
2022-08-11T09:06:43.495Z,26.05
2022-08-11T09:07:54.739Z,25.88
2022-08-11T09:08:56.786Z,25.70
2022-08-11T09:09:59.665Z,25.85
2022-08-11T09:11:23.638Z,26.02
2022-08-11T09:12:38.396Z,25.96
2022-08-11T09:13:44.510Z,26.09
2022-08-11T09:15:03.690Z,26.01
2022-08-11T09:16:06.907Z,26.01
2022-08-11T09:17:08.492Z,26.02
2022-08-11T09:18:12.137Z,26.02
2022-08-11T09:19:17.686Z,26.06
2022-08-11T09:20:25.638Z,25.90
2022-08-11T09:21:46.488Z,25.79
2022-08-11T09:24:07.483Z,25.75
2022-08-11T09:24:50.533Z,25.75
2022-08-11T09:26:14.907Z,25.83
2022-08-11T09:27:16.444Z,25.94
2022-08-11T09:28:20.616Z,25.99
2022-08-11T09:29:22.847Z,26.03
2022-08-11T09:30:26.772Z,26.05
2022-08-11T09:31:37.246Z,26.03
2022-08-11T09:32:42.025Z,26.02
2022-08-11T09:33:45.343Z,25.92
2022-08-11T09:34:47.635Z,25.93
2022-08-11T09:35:51.389Z,25.88
2022-08-11T09:37:13.038Z,25.82
2022-08-11T09:38:36.110Z,25.75
2022-08-11T09:39:59.977Z,25.82
2022-08-11T09:41:07.627Z,26.12
2022-08-11T09:42:16.392Z,26.21
2022-08-11T09:43:38.559Z,26.18
2022-08-11T09:44:51.049Z,26.08
2022-08-11T09:45:54.600Z,26.07
2022-08-11T09:47:00.279Z,26.08
2022-08-11T09:48:05.250Z,26.13
2022-08-11T09:49:06.907Z,26.14
2022-08-11T09:50:10.003Z,26.21
2022-08-11T09:51:12.694Z,26.20
2022-08-11T09:52:15.544Z,26.22
2022-08-11T09:53:35.018Z,26.19
2022-08-11T09:54:38.764Z,26.13
2022-08-11T09:55:40.951Z,26.10
2022-08-11T09:57:05.167Z,26.04
2022-08-11T09:58:41.932Z,26.12
2022-08-11T09:59:41.385Z,25.99
2022-08-11T10:00:44.567Z,26.07
2022-08-11T10:01:49.218Z,26.24
2022-08-11T10:02:54.518Z,26.29
2022-08-11T10:04:12.365Z,26.25
2022-08-11T10:05:35.791Z,26.30
2022-08-11T10:06:58.411Z,26.21
2022-08-11T10:08:01.466Z,26.33
2022-08-11T10:09:06.202Z,26.31
2022-08-11T10:10:09.204Z,26.16
2022-08-11T10:11:17.706Z,26.25
2022-08-11T10:12:30.724Z,26.29
2022-08-11T10:14:33.100Z,26.34
2022-08-11T10:15:34.435Z,26.37
2022-08-11T10:16:40.193Z,26.21
2022-08-11T10:18:07.148Z,26.27
2022-08-11T10:19:09.946Z,26.33
2022-08-11T10:20:11.644Z,26.32
2022-08-11T10:21:23.468Z,26.40
2022-08-11T10:22:43.880Z,26.39
2022-08-11T10:24:05.872Z,26.37
2022-08-11T10:25:27.654Z,26.48
2022-08-11T10:26:49.845Z,26.55
2022-08-11T10:28:30.404Z,26.49
2022-08-11T10:30:05.861Z,26.59
2022-08-11T10:31:36.321Z,26.68
2022-08-11T10:33:09.528Z,26.73
2022-08-11T10:34:15.447Z,26.71
2022-08-11T10:35:21.727Z,26.68
2022-08-11T10:36:23.590Z,26.66
2022-08-11T10:38:06.481Z,26.72
2022-08-11T10:38:51.378Z,26.74
2022-08-11T10:39:56.343Z,26.83
2022-08-11T10:41:17.600Z,27.06
2022-08-11T10:42:57.413Z,27.04
2022-08-11T10:44:03.692Z,27.02
2022-08-11T10:45:28.427Z,27.02
2022-08-11T10:46:49.271Z,27.06
2022-08-11T10:47:54.246Z,27.15
2022-08-11T10:48:57.959Z,27.25
2022-08-11T10:50:22.886Z,27.30
2022-08-11T10:51:50.886Z,27.35
2022-08-11T10:53:14.017Z,27.20
2022-08-11T10:54:34.341Z,27.36
2022-08-11T10:55:58.390Z,27.20
2022-08-11T10:57:19.623Z,27.13
2022-08-11T10:58:41.474Z,27.20
2022-08-11T10:59:43.995Z,27.29
2022-08-11T11:00:45.694Z,27.33
2022-08-11T11:01:47.607Z,27.34
2022-08-11T11:03:22.063Z,27.39
2022-08-11T11:04:17.550Z,27.53
2022-08-11T11:05:30.619Z,27.43
2022-08-11T11:06:43.992Z,27.54
2022-08-11T11:07:45.408Z,27.61
2022-08-11T11:08:57.508Z,27.64
2022-08-11T11:10:03.939Z,27.70
2022-08-11T11:11:07.469Z,27.66
2022-08-11T11:12:43.553Z,27.81
2022-08-11T11:14:11.223Z,27.83
2022-08-11T11:15:33.807Z,27.81
2022-08-11T11:16:56.227Z,27.98
2022-08-11T11:18:04.863Z,28.08
2022-08-11T11:19:10.019Z,27.59
2022-08-11T11:20:35.776Z,27.48
2022-08-11T11:21:39.753Z,27.39
2022-08-11T11:22:52.361Z,27.27
2022-08-11T11:24:17.793Z,27.30
2022-08-11T11:25:25.280Z,27.48
2022-08-11T11:26:38.523Z,27.52
2022-08-11T11:27:59.842Z,27.54
2022-08-11T11:29:20.571Z,27.76
2022-08-11T11:30:27.752Z,27.67
2022-08-11T11:31:35.439Z,27.55
2022-08-11T11:33:08.075Z,27.55
2022-08-11T11:34:37.267Z,27.65
2022-08-11T11:36:20.554Z,27.60
2022-08-11T11:37:25.366Z,27.41
2022-08-11T11:38:28.991Z,27.48
2022-08-11T11:39:32.450Z,27.50
2022-08-11T11:40:34.846Z,27.54
2022-08-11T11:41:36.736Z,27.59
2022-08-11T11:42:44.646Z,27.63
2022-08-11T11:43:47.135Z,27.61
2022-08-11T11:44:49.418Z,27.58
2022-08-11T11:45:51.261Z,27.52
2022-08-11T11:46:53.695Z,27.56
2022-08-11T11:47:59.265Z,27.55
2022-08-11T11:49:14.005Z,27.62
2022-08-11T11:50:37.594Z,27.56
2022-08-11T11:51:39.515Z,27.57
2022-08-11T11:52:43.648Z,27.63
2022-08-11T11:53:47.001Z,27.77
2022-08-11T11:54:52.036Z,27.80
2022-08-11T11:55:53.771Z,27.68
2022-08-11T11:56:56.934Z,27.81
2022-08-11T11:58:20.190Z,27.46
2022-08-11T11:59:46.583Z,27.48
2022-08-11T12:01:08.454Z,27.71
2022-08-11T12:02:13.235Z,27.85
2022-08-11T12:03:15.296Z,27.90
2022-08-11T12:04:18.204Z,27.71
2022-08-11T12:05:20.690Z,27.70
2022-08-11T12:06:25.198Z,27.85
2022-08-11T12:07:45.559Z,27.94
2022-08-11T12:08:59.782Z,28.06
2022-08-11T12:10:01.775Z,27.97
2022-08-11T12:11:25.141Z,27.75
2022-08-11T12:12:45.918Z,27.66
2022-08-11T12:13:50.506Z,27.99
2022-08-11T12:14:53.684Z,28.04
2022-08-11T12:16:05.399Z,28.03
2022-08-11T12:17:16.997Z,27.97
2022-08-11T12:18:19.266Z,28.12
2022-08-11T12:19:25.466Z,28.15
2022-08-11T12:20:31.744Z,28.01
2022-08-11T12:21:37.352Z,28.04
2022-08-11T12:22:57.738Z,28.03
2022-08-11T12:24:20.647Z,28.11
2022-08-11T12:25:41.012Z,28.11
2022-08-11T12:27:16.795Z,28.08
2022-08-11T12:28:10.857Z,28.36
2022-08-11T12:29:13.111Z,28.22
2022-08-11T12:30:14.663Z,28.17
2022-08-11T12:31:16.478Z,28.24
2022-08-11T12:32:20.395Z,28.04
2022-08-11T12:33:24.133Z,28.14
2022-08-11T12:34:28.315Z,28.25
2022-08-11T12:35:30.492Z,28.15
2022-08-11T12:36:37.294Z,28.33
2022-08-11T12:37:46.968Z,28.41
2022-08-11T12:38:52.267Z,28.60
2022-08-11T12:40:43.427Z,28.58
2022-08-11T12:42:00.975Z,28.27
2022-08-11T12:43:38.872Z,28.18
2022-08-11T12:44:59.905Z,28.13
2022-08-11T12:46:06.432Z,28.39
2022-08-11T12:47:09.163Z,28.55
2022-08-11T12:49:00.436Z,28.57
2022-08-11T12:50:20.850Z,28.81
2022-08-11T12:52:12.068Z,28.94
2022-08-11T12:53:10.221Z,28.54
2022-08-11T12:54:23.434Z,28.65
2022-08-11T12:56:07.660Z,28.87
2022-08-11T12:57:48.064Z,29.07
2022-08-11T12:58:52.741Z,29.23
2022-08-11T13:00:14.114Z,29.29
2022-08-11T13:01:34.842Z,29.37
2022-08-11T13:02:55.455Z,29.36
2022-08-11T13:04:15.817Z,29.39
2022-08-11T13:05:17.947Z,29.09
2022-08-11T13:06:24.342Z,29.19
2022-08-11T13:07:27.952Z,29.21
2022-08-11T13:08:51.600Z,29.12
2022-08-11T13:09:54.455Z,29.00
2022-08-11T13:11:18.124Z,29.12
2022-08-11T13:12:39.403Z,29.22
2022-08-11T13:13:54.341Z,29.47
2022-08-11T13:15:00.365Z,29.55
2022-08-11T13:16:03.749Z,29.69
2022-08-11T13:17:21.782Z,29.85
2022-08-11T13:18:44.638Z,30.02
2022-08-11T13:19:49.784Z,30.10
2022-08-11T13:20:55.927Z,30.21
2022-08-11T13:21:57.910Z,30.26
2022-08-11T13:23:00.965Z,30.03
2022-08-11T13:24:03.656Z,29.97
2022-08-11T13:25:07.519Z,30.15
2022-08-11T13:26:10.387Z,30.23
2022-08-11T13:27:14.963Z,30.05
2022-08-11T13:28:21.233Z,30.16
2022-08-11T13:29:25.473Z,29.90
2022-08-11T13:30:48.953Z,29.98
2022-08-11T13:31:52.472Z,30.17
2022-08-11T13:32:55.467Z,30.02
2022-08-11T13:33:57.366Z,29.48
2022-08-11T13:34:59.048Z,29.61
2022-08-11T13:36:02.098Z,29.86
2022-08-11T13:37:05.279Z,29.87
2022-08-11T13:38:19.645Z,29.66
2022-08-11T13:39:25.178Z,29.54
2022-08-11T13:40:52.663Z,29.51
2022-08-11T13:41:51.235Z,29.59
2022-08-11T13:42:53.911Z,29.55
2022-08-11T13:43:56.250Z,29.62
2022-08-11T13:44:58.755Z,29.80
2022-08-11T13:46:18.813Z,30.00
2022-08-11T13:47:23.743Z,29.63
2022-08-11T13:48:25.301Z,29.61
2022-08-11T13:49:27.858Z,29.73
2022-08-11T13:50:48.087Z,29.79
2022-08-11T13:51:50.684Z,29.59
2022-08-11T13:52:53.248Z,29.53
2022-08-11T13:53:55.197Z,29.50
2022-08-11T13:55:04.673Z,29.61
2022-08-11T13:56:06.316Z,29.72
2022-08-11T13:57:38.580Z,29.73
2022-08-11T13:58:39.749Z,29.76
2022-08-11T13:59:52.620Z,29.82
2022-08-11T14:00:54.824Z,29.97
2022-08-11T14:02:21.550Z,29.72
2022-08-11T14:03:27.571Z,29.55
2022-08-11T14:04:55.457Z,29.71
2022-08-11T14:06:01.637Z,29.78
2022-08-11T14:07:07.758Z,29.77
2022-08-11T14:08:38.086Z,29.71
2022-08-11T14:09:45.428Z,29.74
2022-08-11T14:12:21.150Z,29.82
2022-08-11T14:12:53.337Z,29.29
2022-08-11T14:13:57.081Z,29.59
2022-08-11T14:15:08.849Z,29.63
2022-08-11T14:16:19.625Z,29.69
2022-08-11T14:17:46.967Z,29.66
2022-08-11T14:18:46.984Z,29.42
2022-08-11T14:19:52.155Z,29.51
2022-08-11T14:21:15.742Z,29.47
2022-08-11T14:22:18.536Z,29.71
2022-08-11T14:23:35.438Z,29.88
2022-08-11T14:24:41.265Z,29.75
2022-08-11T14:26:03.117Z,29.81
2022-08-11T14:27:06.554Z,30.03
2022-08-11T14:28:33.709Z,29.96
2022-08-11T14:29:48.618Z,29.72
2022-08-11T14:31:00.998Z,29.84
2022-08-11T14:32:04.345Z,29.72
2022-08-11T14:33:17.128Z,29.78
2022-08-11T14:34:21.735Z,29.93
2022-08-11T14:35:25.904Z,30.19
2022-08-11T14:36:30.699Z,29.94
2022-08-11T14:37:32.869Z,29.87
2022-08-11T14:38:36.769Z,29.98
2022-08-11T14:39:44.858Z,30.12
2022-08-11T14:41:06.281Z,30.00
2022-08-11T14:42:27.466Z,30.10
2022-08-11T14:44:10.412Z,30.28
2022-08-11T14:45:58.132Z,30.34
2022-08-11T14:47:23.751Z,30.30
2022-08-11T14:48:26.844Z,30.25
2022-08-11T14:49:30.137Z,30.19
2022-08-11T14:50:33.329Z,30.17
2022-08-11T14:51:35.307Z,30.25
2022-08-11T14:52:37.777Z,30.05
2022-08-11T14:53:40.471Z,30.18
2022-08-11T14:55:18.713Z,30.36
2022-08-11T14:56:38.402Z,30.20
2022-08-11T14:57:55.896Z,30.18
2022-08-11T14:58:59.362Z,29.82
2022-08-11T15:00:03.984Z,29.79
2022-08-11T15:01:28.801Z,29.80
2022-08-11T15:02:49.559Z,29.86
2022-08-11T15:04:25.066Z,29.83
2022-08-11T15:05:14.745Z,29.93
2022-08-11T15:06:16.428Z,30.06
2022-08-11T15:07:18.894Z,30.05
2022-08-11T15:08:43.130Z,29.92
2022-08-11T15:10:11.774Z,29.88
2022-08-11T15:11:27.788Z,29.87
2022-08-11T15:12:32.823Z,29.96
2022-08-11T15:13:36.487Z,30.04
2022-08-11T15:14:58.090Z,30.16
2022-08-11T15:16:18.633Z,29.87
2022-08-11T15:17:22.501Z,30.07
2022-08-11T15:18:28.633Z,30.13
2022-08-11T15:19:40.546Z,30.10
2022-08-11T15:21:02.435Z,30.04
2022-08-11T15:22:35.857Z,29.76
2022-08-11T15:23:58.551Z,29.69
2022-08-11T15:25:00.557Z,29.81
2022-08-11T15:26:07.346Z,29.82
2022-08-11T15:27:32.286Z,29.93
2022-08-11T15:28:57.940Z,29.94
2022-08-11T15:30:32.245Z,29.96
2022-08-11T15:31:56.261Z,30.20
2022-08-11T15:33:17.203Z,30.26
2022-08-11T15:34:40.593Z,30.07
2022-08-11T15:36:21.541Z,30.07
2022-08-11T15:37:26.319Z,30.24
2022-08-11T15:38:36.154Z,30.15
2022-08-11T15:40:30.125Z,29.92
2022-08-11T15:42:00.198Z,29.94
2022-08-11T15:43:33.186Z,30.18
2022-08-11T15:45:04.101Z,29.73
2022-08-11T15:47:01.894Z,29.86
2022-08-11T15:48:10.577Z,29.80
2022-08-11T15:49:22.093Z,29.82
2022-08-11T15:50:32.684Z,29.91
2022-08-11T15:52:17.406Z,29.90
2022-08-11T15:53:39.134Z,30.00
2022-08-11T15:54:43.058Z,29.91
2022-08-11T15:55:45.496Z,29.81
2022-08-11T15:56:51.766Z,29.94
2022-08-11T15:58:15.447Z,29.93
2022-08-11T15:59:41.754Z,29.92
2022-08-11T16:01:09.069Z,29.89
2022-08-11T16:02:32.483Z,29.95
2022-08-11T16:04:07.796Z,29.82
2022-08-11T16:05:13.861Z,29.60
2022-08-11T16:06:44.094Z,29.67
2022-08-11T16:07:54.044Z,29.78
2022-08-11T16:09:04.098Z,29.72
2022-08-11T16:10:17.996Z,29.77
2022-08-11T16:11:22.695Z,29.77
2022-08-11T16:12:32.732Z,29.66
2022-08-11T16:13:36.921Z,29.72
2022-08-11T16:15:02.063Z,29.76
2022-08-11T16:16:14.734Z,29.34
2022-08-11T16:17:18.753Z,29.38
2022-08-11T16:18:22.335Z,29.47
2022-08-11T16:19:27.097Z,29.36
2022-08-11T16:20:29.971Z,29.42
2022-08-11T16:21:36.818Z,29.38
2022-08-11T16:22:41.398Z,29.36
2022-08-11T16:23:59.429Z,29.38
2022-08-11T16:27:01.999Z,29.43
2022-08-11T16:27:07.585Z,29.27
2022-08-11T16:27:54.980Z,29.21
2022-08-11T16:29:00.204Z,29.05
2022-08-11T16:30:02.337Z,29.06
2022-08-11T16:31:10.709Z,28.94
2022-08-11T16:32:17.381Z,28.95
2022-08-11T16:33:50.520Z,28.88
2022-08-11T16:35:08.232Z,28.88
2022-08-11T16:36:30.181Z,28.90